Aviation Digital Data Service (ADDS)

Output produced by METARs form (0740 UTC 26 April 2018)
found at http://aviationweather.gov/adds/metars/
 
KSAN 260520Z 2606/2712 VRB04KT P6SM SCT015 SCT200 
     FM260630 VRB04KT P6SM OVC013 
     FM261700 VRB04KT P6SM SCT015 SCT200 
     FM261900 29009KT P6SM SCT015 SCT200 
     FM270300 VRB04KT P6SM OVC015